Time;durP1;ratioP1;P1;durP2;ratioP2;P2;SDS_P1;SDS_P2;PMS_P1;PMS_P2;Temp;Humidity;BMP_temperature;BMP_pressure;BME280_temperature;BME280_humidity;BME280_pressure;Samples;Min_cycle;Max_cycle;Signal;HPM_P1;HPM_P2
2022/11/30 00:00:52;;;;;;;19.10;12.77;;;4.50;99.90;;;;;;4936857;29;20242;-84
2022/11/30 00:03:18;;;;;;;22.33;14.03;;;4.70;99.90;;;;;;4936821;29;20536;-83
2022/11/30 00:05:43;;;;;;;21.93;13.27;;;4.60;99.90;;;;;;4936787;29;20232;-85
2022/11/30 00:08:09;;;;;;;25.37;14.53;;;4.50;99.90;;;;;;4937269;29;20203;-85
2022/11/30 00:10:40;;;;;;;20.97;12.73;;;4.50;99.90;;;;;;4937462;29;20212;-83
2022/11/30 00:13:07;;;;;;;23.77;13.70;;;4.40;99.90;;;;;;4939135;29;20175;-84
2022/11/30 00:15:33;;;;;;;21.37;13.20;;;4.50;99.90;;;;;;4938934;29;20275;-83
2022/11/30 00:18:01;;;;;;;20.10;12.90;;;4.50;99.90;;;;;;4940119;29;20213;-85
2022/11/30 00:20:28;;;;;;;22.07;12.93;;;4.40;99.90;;;;;;4946468;29;20180;-85
2022/11/30 00:22:56;;;;;;;19.10;12.70;;;4.50;99.90;;;;;;4922811;29;20579;-86
2022/11/30 00:25:23;;;;;;;18.10;12.53;;;4.60;99.90;;;;;;4936821;29;20181;-85
2022/11/30 00:27:49;;;;;;;20.77;12.20;;;4.60;99.90;;;;;;4936634;29;20177;-82
2022/11/30 00:30:15;;;;;;;20.07;12.77;;;4.70;99.90;;;;;;4936467;29;20203;-84
2022/11/30 00:32:41;;;;;;;19.27;11.67;;;4.70;99.90;;;;;;4938419;29;20189;-83
2022/11/30 00:35:07;;;;;;;19.67;12.07;;;4.70;99.90;;;;;;4946706;29;20169;-85
2022/11/30 00:37:36;;;;;;;22.33;13.03;;;4.70;99.90;;;;;;4938245;29;20703;-85
2022/11/30 00:40:02;;;;;;;20.60;12.60;;;4.70;99.90;;;;;;4927427;29;20190;-85
2022/11/30 00:42:27;;;;;;;22.23;13.17;;;4.60;99.90;;;;;;4937816;29;20176;-80
2022/11/30 00:44:53;;;;;;;21.83;13.50;;;4.60;99.90;;;;;;4936615;29;20183;-78
2022/11/30 00:47:19;;;;;;;21.43;13.07;;;4.70;99.90;;;;;;4919125;29;20278;-82
2022/11/30 00:49:45;;;;;;;21.23;13.60;;;4.60;99.90;;;;;;4936801;29;20216;-82
2022/11/30 00:52:11;;;;;;;24.07;14.30;;;4.50;99.90;;;;;;4938934;29;20245;-84
2022/11/30 00:54:37;;;;;;;23.97;14.30;;;4.40;99.90;;;;;;4937249;29;20214;-83
2022/11/30 00:57:02;;;;;;;23.83;13.87;;;4.50;99.90;;;;;;4937282;29;20188;-82
2022/11/30 00:59:28;;;;;;;20.80;13.07;;;4.60;99.90;;;;;;4937882;29;20681;-84
2022/11/30 01:01:54;;;;;;;23.43;14.27;;;4.60;99.90;;;;;;4942333;29;20656;-85
2022/11/30 01:04:20;;;;;;;22.23;13.43;;;4.60;99.90;;;;;;4939569;29;20227;-84
2022/11/30 01:06:46;;;;;;;23.43;14.13;;;4.60;99.90;;;;;;4936209;29;20263;-82
2022/11/30 01:09:12;;;;;;;23.83;13.27;;;4.50;99.90;;;;;;4936255;29;20202;-84
2022/11/30 01:11:38;;;;;;;20.13;12.43;;;4.40;99.90;;;;;;4936043;29;20238;-86
2022/11/30 01:14:04;;;;;;;21.10;12.97;;;4.40;99.90;;;;;;4938583;29;20237;-85
2022/11/30 01:16:32;;;;;;;21.33;13.33;;;4.40;99.90;;;;;;4939995;29;20176;-84
2022/11/30 01:18:58;;;;;;;22.47;13.07;;;4.30;99.90;;;;;;4935862;29;20164;-81
2022/11/30 01:21:27;;;;;;;22.00;13.70;;;4.30;99.90;;;;;;4935740;29;20214;-86
2022/11/30 01:23:54;;;;;;;21.33;13.70;;;4.40;99.90;;;;;;4935933;29;20533;-85
2022/11/30 01:26:20;;;;;;;19.53;12.17;;;4.40;99.90;;;;;;4918724;29;20187;-83
2022/11/30 01:28:53;;;;;;;23.17;13.37;;;4.30;99.90;;;;;;4935775;29;20176;-83
2022/11/30 01:31:20;;;;;;;21.43;13.43;;;4.30;99.90;;;;;;4935855;29;20622;-85
2022/11/30 01:33:54;;;;;;;21.53;12.80;;;4.20;99.90;;;;;;4918708;29;20183;-83
2022/11/30 01:36:24;;;;;;;22.67;13.87;;;4.30;99.90;;;;;;4918717;29;20185;-85
2022/11/30 01:38:53;;;;;;;19.57;12.90;;;4.30;99.90;;;;;;4939278;29;20224;-85
2022/11/30 01:41:27;;;;;;;22.83;13.43;;;4.30;99.90;;;;;;4939297;29;20658;-84
2022/11/30 01:43:55;;;;;;;22.83;13.70;;;4.50;99.90;;;;;;4922609;29;20239;-85
2022/11/30 01:46:41;;;;;;;20.10;12.90;;;4.50;99.90;;;;;;4922396;29;20178;-85
2022/11/30 01:49:10;;;;;;;22.07;12.43;;;4.50;99.90;;;;;;4939853;29;20218;-85
2022/11/30 01:51:57;;;;;;;20.90;12.87;;;4.50;99.90;;;;;;4939695;29;20270;-84
2022/11/30 01:54:28;;;;;;;19.80;13.23;;;4.50;99.90;;;;;;4939666;29;20166;-87
2022/11/30 01:56:58;;;;;;;20.60;12.73;;;4.50;99.90;;;;;;4940556;29;20160;-84
2022/11/30 01:59:25;;;;;;;21.50;13.07;;;4.50;99.90;;;;;;4940928;29;20306;-85
2022/11/30 02:01:52;;;;;;;19.33;12.70;;;4.50;99.90;;;;;;4942110;29;20173;-84
2022/11/30 02:04:30;;;;;;;20.87;13.13;;;4.50;99.90;;;;;;4924176;29;20298;-84
2022/11/30 02:06:57;;;;;;;20.77;13.03;;;4.50;99.90;;;;;;4945611;29;20217;-83
2022/11/30 02:09:23;;;;;;;20.27;12.63;;;4.60;99.90;;;;;;4956848;29;20211;-84
2022/11/30 02:11:49;;;;;;;20.73;12.47;;;4.60;99.90;;;;;;4940981;29;20210;-83
2022/11/30 02:14:41;;;;;;;18.83;11.73;;;4.60;99.90;;;;;;4939849;29;20183;-85
2022/11/30 02:17:34;;;;;;;21.47;12.97;;;4.60;99.90;;;;;;4939321;29;20163;-82
2022/11/30 02:20:30;;;;;;;20.07;11.77;;;4.60;99.90;;;;;;4941989;29;20260;-83
2022/11/30 02:23:14;;;;;;;22.13;12.17;;;4.50;99.90;;;;;;4939281;29;20690;-82
2022/11/30 02:26:33;;;;;;;19.67;12.00;;;4.60;99.90;;;;;;4938660;29;20168;-84
2022/11/30 02:29:12;;;;;;;18.70;11.47;;;4.70;99.90;;;;;;4861179;29;20189;-83
2022/11/30 02:31:52;;;;;;;19.40;11.23;;;4.70;99.90;;;;;;4861293;29;20217;-85
2022/11/30 02:34:21;;;;;;;23.00;12.50;;;4.70;99.90;;;;;;4845654;29;20574;-84
2022/11/30 02:36:47;;;;;;;21.77;12.90;;;4.60;99.90;;;;;;4861295;29;20171;-84
2022/11/30 02:39:13;;;;;;;23.67;14.23;;;4.60;99.90;;;;;;4861008;29;20178;-83
2022/11/30 02:41:40;;;;;;;23.07;14.10;;;4.50;99.90;;;;;;4860805;29;20188;-81
2022/11/30 02:44:09;;;;;;;22.97;13.33;;;4.50;99.90;;;;;;4845429;29;20706;-81
2022/11/30 02:46:56;;;;;;;19.77;12.50;;;4.50;99.90;;;;;;4860938;29;20202;-81
2022/11/30 02:49:53;;;;;;;23.50;13.87;;;4.40;99.90;;;;;;4860993;29;20185;-82
2022/11/30 02:52:25;;;;;;;25.03;13.63;;;4.30;99.90;;;;;;4860936;29;20233;-85
2022/11/30 02:54:52;;;;;;;23.60;14.83;;;4.40;99.90;;;;;;4861004;29;20180;-84
2022/11/30 02:57:18;;;;;;;28.30;15.33;;;4.40;99.90;;;;;;4860877;29;20189;-85
2022/11/30 02:59:44;;;;;;;25.17;14.93;;;4.40;99.90;;;;;;4908179;29;20219;-84
2022/11/30 03:02:10;;;;;;;24.37;14.50;;;4.40;99.90;;;;;;4942796;29;20191;-83
2022/11/30 03:04:36;;;;;;;22.63;13.33;;;4.30;99.90;;;;;;4938602;29;20253;-84
2022/11/30 03:07:02;;;;;;;21.80;14.03;;;4.30;99.90;;;;;;4938133;29;20768;-84
2022/11/30 03:09:28;;;;;;;23.17;13.77;;;4.30;99.90;;;;;;4937663;29;20262;-84
2022/11/30 03:11:53;;;;;;;23.57;14.20;;;4.30;99.90;;;;;;4920454;29;20629;-84
2022/11/30 03:14:19;;;;;;;22.27;12.97;;;4.40;99.90;;;;;;4937819;29;20178;-83
2022/11/30 03:16:45;;;;;;;24.37;13.97;;;4.40;99.90;;;;;;4937701;29;20184;-84
2022/11/30 03:19:11;;;;;;;24.37;13.97;;;4.30;99.90;;;;;;4937621;29;20179;-85
2022/11/30 03:21:37;;;;;;;24.30;13.80;;;4.40;99.90;;;;;;4937736;29;20179;-83
2022/11/30 03:24:03;;;;;;;21.03;12.77;;;4.30;99.90;;;;;;4939090;29;20714;-84
2022/11/30 03:26:29;;;;;;;22.33;12.90;;;4.30;99.90;;;;;;4938196;29;20172;-85
2022/11/30 03:28:54;;;;;;;21.13;13.03;;;4.30;99.90;;;;;;4937896;29;20211;-83
2022/11/30 03:31:20;;;;;;;24.00;13.83;;;4.30;99.90;;;;;;4937315;29;20283;-84
2022/11/30 03:33:46;;;;;;;19.63;12.57;;;4.30;99.90;;;;;;4937373;29;20195;-85
2022/11/30 03:36:12;;;;;;;23.37;13.50;;;4.20;99.90;;;;;;4922793;29;20191;-85
2022/11/30 03:38:38;;;;;;;22.73;13.47;;;4.20;99.90;;;;;;4941201;29;20172;-85
2022/11/30 03:41:12;;;;;;;20.70;13.57;;;4.20;99.90;;;;;;4937570;29;20267;-85
2022/11/30 03:43:38;;;;;;;24.07;13.83;;;4.20;99.90;;;;;;4937678;29;20157;-84
2022/11/30 03:46:04;;;;;;;25.37;13.30;;;4.20;99.90;;;;;;4945149;29;20188;-83
2022/11/30 03:48:30;;;;;;;21.47;12.97;;;4.20;99.90;;;;;;4945419;29;20247;-85
2022/11/30 03:50:56;;;;;;;22.37;13.13;;;4.20;99.90;;;;;;4940289;29;20215;-84
2022/11/30 03:53:24;;;;;;;25.47;14.97;;;4.20;99.90;;;;;;4938803;29;20220;-84
2022/11/30 03:55:55;;;;;;;28.97;14.63;;;4.30;99.90;;;;;;4952307;29;20172;-84
2022/11/30 03:58:22;;;;;;;25.97;14.67;;;4.30;99.90;;;;;;4946292;29;20629;-82
2022/11/30 04:00:48;;;;;;;23.20;14.30;;;4.30;99.90;;;;;;4936956;29;20231;-84
2022/11/30 04:03:15;;;;;;;23.60;14.13;;;4.20;99.90;;;;;;4943578;29;20199;-85
2022/11/30 04:05:41;;;;;;;22.30;13.20;;;4.20;99.90;;;;;;4942061;29;20191;-85
2022/11/30 04:08:06;;;;;;;26.73;14.60;;;4.20;99.90;;;;;;4937621;29;20168;-86
2022/11/30 04:10:32;;;;;;;24.07;14.67;;;4.20;99.90;;;;;;4936801;29;20651;-85
2022/11/30 04:13:01;;;;;;;26.83;14.60;;;4.20;99.90;;;;;;4936998;29;20181;-84
2022/11/30 04:15:27;;;;;;;25.53;15.27;;;4.30;99.90;;;;;;4936919;29;20183;-86
2022/11/30 04:17:52;;;;;;;25.30;14.43;;;4.30;99.90;;;;;;4937496;29;20540;-83
2022/11/30 04:20:18;;;;;;;22.63;13.63;;;4.30;99.90;;;;;;4939055;29;20180;-84
2022/11/30 04:22:44;;;;;;;24.53;15.10;;;4.30;99.90;;;;;;4936747;29;20654;-82
2022/11/30 04:25:10;;;;;;;23.60;14.27;;;4.30;99.90;;;;;;4938700;29;20625;-83
2022/11/30 04:27:36;;;;;;;25.27;13.80;;;4.30;99.90;;;;;;4936911;29;20183;-86
2022/11/30 04:30:02;;;;;;;24.50;13.97;;;4.40;99.90;;;;;;4936933;29;20194;-80
2022/11/30 04:32:27;;;;;;;24.10;13.57;;;4.30;99.90;;;;;;4936614;29;20215;-80
2022/11/30 04:34:53;;;;;;;21.57;13.80;;;4.40;99.90;;;;;;4937235;29;20541;-85
2022/11/30 04:37:19;;;;;;;27.20;14.07;;;4.40;99.90;;;;;;4938506;29;20627;-85
2022/11/30 04:39:45;;;;;;;22.97;13.50;;;4.40;99.90;;;;;;4941846;29;20239;-85
2022/11/30 04:42:11;;;;;;;22.80;13.33;;;4.40;99.90;;;;;;4919286;29;20188;-84
2022/11/30 04:44:37;;;;;;;21.13;13.20;;;4.50;99.90;;;;;;4936312;29;20207;-84
2022/11/30 04:47:03;;;;;;;21.27;12.70;;;4.40;99.90;;;;;;4919017;29;20645;-84
2022/11/30 04:49:29;;;;;;;23.20;13.60;;;4.50;99.90;;;;;;4935924;29;20187;-84
2022/11/30 04:51:55;;;;;;;23.77;13.73;;;4.50;99.90;;;;;;4935991;29;20275;-85
2022/11/30 04:54:20;;;;;;;22.20;12.53;;;4.50;99.90;;;;;;4919103;29;20180;-85
2022/11/30 04:56:46;;;;;;;18.80;11.20;;;4.50;99.90;;;;;;4936108;29;20214;-83
2022/11/30 04:59:12;;;;;;;15.43;11.03;;;4.50;99.90;;;;;;4935484;29;20203;-77
2022/11/30 05:01:38;;;;;;;18.80;10.97;;;4.60;99.90;;;;;;4936415;29;20196;-82
2022/11/30 05:04:04;;;;;;;19.03;11.73;;;4.60;99.90;;;;;;4938669;29;20267;-81
2022/11/30 05:06:29;;;;;;;18.33;11.03;;;4.70;99.90;;;;;;4936225;29;20577;-78
2022/11/30 05:08:55;;;;;;;17.73;11.27;;;4.70;99.90;;;;;;4935639;29;20714;-80
2022/11/30 05:11:21;;;;;;;16.00;10.47;;;4.70;99.90;;;;;;4935018;29;20212;-79
2022/11/30 05:13:47;;;;;;;16.63;10.67;;;4.70;99.90;;;;;;4940093;29;20178;-84
2022/11/30 05:16:13;;;;;;;16.60;11.27;;;4.70;99.90;;;;;;4943561;29;20525;-84
2022/11/30 05:18:38;;;;;;;18.07;10.83;;;4.70;99.90;;;;;;4936743;29;20234;-84
2022/11/30 05:21:04;;;;;;;19.23;11.60;;;4.70;99.90;;;;;;4935733;29;20183;-84
2022/11/30 05:23:30;;;;;;;16.70;11.20;;;4.70;99.90;;;;;;4935664;29;20252;-83
2022/11/30 05:25:56;;;;;;;16.30;11.93;;;4.80;99.90;;;;;;4935776;29;20652;-83
2022/11/30 05:28:21;;;;;;;15.27;10.80;;;4.70;99.90;;;;;;4935452;29;20180;-83
2022/11/30 05:30:47;;;;;;;18.10;11.17;;;4.70;99.90;;;;;;4935596;29;20207;-85
2022/11/30 05:33:13;;;;;;;18.83;11.50;;;4.70;99.90;;;;;;4936813;29;20195;-83
2022/11/30 05:35:39;;;;;;;17.57;11.40;;;4.70;99.90;;;;;;4938514;29;20182;-85
2022/11/30 05:38:05;;;;;;;18.37;11.33;;;4.60;99.90;;;;;;4921202;29;20183;-84
2022/11/30 05:40:32;;;;;;;17.47;10.70;;;4.60;99.90;;;;;;4939432;29;20175;-85
2022/11/30 05:42:59;;;;;;;17.50;10.80;;;4.60;99.90;;;;;;4947677;29;20204;-83
2022/11/30 05:45:25;;;;;;;14.80;9.30;;;4.50;99.90;;;;;;4943196;29;20235;-81
2022/11/30 05:47:51;;;;;;;13.20;8.60;;;4.60;99.90;;;;;;4938022;29;20552;-80
2022/11/30 05:50:20;;;;;;;14.23;10.10;;;4.60;99.90;;;;;;4936976;29;20228;-80
2022/11/30 05:52:46;;;;;;;13.90;9.83;;;4.50;99.90;;;;;;4940330;29;20195;-78
2022/11/30 05:55:12;;;;;;;19.30;9.83;;;4.60;99.90;;;;;;4918820;29;20195;-82
2022/11/30 05:57:41;;;;;;;14.37;8.77;;;4.60;99.90;;;;;;4935749;29;20211;-81
2022/11/30 06:00:08;;;;;;;13.27;9.63;;;4.60;99.90;;;;;;4937460;29;20221;-84
2022/11/30 06:02:34;;;;;;;13.17;9.10;;;4.60;99.90;;;;;;4935603;29;20173;-82
2022/11/30 06:05:00;;;;;;;14.53;10.27;;;4.60;99.90;;;;;;4918526;29;20230;-83
2022/11/30 06:07:26;;;;;;;13.57;9.53;;;4.60;99.90;;;;;;4918473;29;20684;-84
2022/11/30 06:09:51;;;;;;;12.37;8.97;;;4.50;99.90;;;;;;4918286;29;20204;-82
2022/11/30 06:12:17;;;;;;;10.97;8.83;;;4.50;99.90;;;;;;4935226;29;20742;-79
2022/11/30 06:14:43;;;;;;;12.43;9.60;;;4.60;99.90;;;;;;4935177;29;20210;-84
2022/11/30 06:17:09;;;;;;;15.00;10.03;;;4.60;99.90;;;;;;4918407;29;20185;-80
2022/11/30 06:19:34;;;;;;;14.00;9.87;;;4.60;99.90;;;;;;4935570;29;20256;-83
2022/11/30 06:22:00;;;;;;;15.53;10.53;;;4.60;99.90;;;;;;4935883;29;20176;-83
2022/11/30 06:24:26;;;;;;;12.83;9.27;;;4.60;99.90;;;;;;4937942;29;20565;-83
2022/11/30 06:26:52;;;;;;;11.80;8.47;;;4.60;99.90;;;;;;4939119;29;20205;-84
2022/11/30 06:29:19;;;;;;;11.90;8.30;;;4.50;99.90;;;;;;4938505;29;20186;-82
2022/11/30 06:31:45;;;;;;;13.23;8.23;;;4.50;99.90;;;;;;4945646;29;20209;-82
2022/11/30 06:34:10;;;;;;;13.50;9.17;;;4.50;99.90;;;;;;4943843;29;20172;-84
2022/11/30 06:36:36;;;;;;;11.70;8.13;;;4.60;99.90;;;;;;4938931;29;20184;-84
2022/11/30 06:39:03;;;;;;;10.30;7.87;;;4.60;99.90;;;;;;4938533;29;20181;-85
2022/11/30 06:41:29;;;;;;;10.40;8.10;;;4.60;99.90;;;;;;4942502;29;20191;-84
2022/11/30 06:43:54;;;;;;;11.07;8.40;;;4.70;99.90;;;;;;4930829;29;20180;-84
2022/11/30 06:46:21;;;;;;;12.60;9.27;;;4.70;99.90;;;;;;4939054;29;20172;-84
2022/11/30 06:48:51;;;;;;;12.30;8.47;;;4.70;99.90;;;;;;4938535;29;20624;-84
2022/11/30 06:51:18;;;;;;;11.90;8.40;;;4.70;99.90;;;;;;4938605;29;20614;-85
2022/11/30 06:53:44;;;;;;;13.37;8.70;;;4.60;99.90;;;;;;4938153;29;20179;-82
2022/11/30 06:56:11;;;;;;;15.20;9.10;;;4.70;99.90;;;;;;4938441;29;20176;-85
2022/11/30 06:58:38;;;;;;;12.87;8.83;;;4.70;99.90;;;;;;4938620;29;20200;-85
2022/11/30 07:01:05;;;;;;;12.27;8.13;;;4.70;99.90;;;;;;4924591;29;20851;-85
2022/11/30 07:03:31;;;;;;;11.13;8.03;;;4.70;99.90;;;;;;4942460;29;20263;-83
2022/11/30 07:05:57;;;;;;;11.43;8.10;;;4.70;99.90;;;;;;4944107;29;20317;-84
2022/11/30 07:08:23;;;;;;;12.27;8.67;;;4.60;99.90;;;;;;4939252;29;20176;-83
2022/11/30 07:10:49;;;;;;;11.17;8.10;;;4.60;99.90;;;;;;4938355;29;20216;-84
2022/11/30 07:13:18;;;;;;;11.70;8.23;;;4.60;99.90;;;;;;4920824;29;20182;-84
2022/11/30 07:15:45;;;;;;;11.87;8.00;;;4.60;99.90;;;;;;4937651;29;20176;-82
2022/11/30 07:18:11;;;;;;;11.13;8.37;;;4.60;99.90;;;;;;4937955;29;20176;-82
2022/11/30 07:20:37;;;;;;;14.03;8.77;;;4.60;99.90;;;;;;4939486;29;20179;-83
2022/11/30 07:26:10;;;;;;;17.60;11.90;;;4.60;99.90;;;;;;4939478;29;20227;-83
2022/11/30 07:28:41;;;;;;;13.57;9.20;;;4.50;99.90;;;;;;4943261;29;20599;-82
2022/11/30 07:31:27;;;;;;;12.70;8.90;;;4.50;99.90;;;;;;4948681;29;20206;-84
2022/11/30 07:33:53;;;;;;;11.50;8.67;;;4.40;99.90;;;;;;4950519;29;20204;-85
2022/11/30 07:36:21;;;;;;;14.60;9.30;;;4.50;99.90;;;;;;4943548;29;20185;-85
2022/11/30 07:38:47;;;;;;;15.07;9.77;;;4.40;99.90;;;;;;4937591;29;20180;-83
2022/11/30 07:41:13;;;;;;;12.03;8.93;;;4.40;99.90;;;;;;4937527;29;20180;-83
2022/11/30 07:43:39;;;;;;;12.93;9.20;;;4.40;99.90;;;;;;4937506;29;20179;-84
2022/11/30 07:46:06;;;;;;;13.53;9.33;;;4.50;99.90;;;;;;4937206;29;20211;-84
2022/11/30 07:48:32;;;;;;;13.67;8.93;;;4.60;99.90;;;;;;4920419;29;20498;-82
2022/11/30 07:51:06;;;;;;;14.10;8.80;;;4.60;99.90;;;;;;4936978;29;20213;-84
2022/11/30 07:53:33;;;;;;;12.57;9.23;;;4.40;99.90;;;;;;4919900;29;20660;-83
2022/11/30 07:56:06;;;;;;;12.50;9.13;;;4.30;99.90;;;;;;4936143;29;20183;-85
2022/11/30 07:58:32;;;;;;;11.87;8.47;;;4.20;99.90;;;;;;4937038;29;20184;-83
2022/11/30 08:01:06;;;;;;;14.30;8.87;;;4.20;99.90;;;;;;4942656;29;20231;-84
2022/11/30 08:03:33;;;;;;;14.93;9.30;;;4.20;99.90;;;;;;4929716;29;20180;-82
2022/11/30 08:06:00;;;;;;;12.20;8.23;;;4.20;99.90;;;;;;4920302;29;20211;-79
2022/11/30 08:08:34;;;;;;;12.73;9.03;;;4.20;99.90;;;;;;4937318;29;20186;-81
2022/11/30 08:11:01;;;;;;;13.07;8.53;;;4.20;99.90;;;;;;4925985;29;20210;-85
2022/11/30 08:13:27;;;;;;;16.90;9.47;;;4.20;99.90;;;;;;4942998;29;20182;-84
2022/11/30 08:15:53;;;;;;;12.33;8.93;;;4.30;99.90;;;;;;4936830;29;20184;-82
2022/11/30 08:18:19;;;;;;;14.37;9.50;;;4.40;99.90;;;;;;4941212;29;20536;-83
2022/11/30 08:20:45;;;;;;;14.13;9.13;;;4.40;99.90;;;;;;4938050;29;20239;-83
2022/11/30 08:23:11;;;;;;;15.77;9.70;;;4.40;99.90;;;;;;4936530;29;20178;-83
2022/11/30 08:25:37;;;;;;;16.57;10.10;;;4.40;99.90;;;;;;4936746;29;20186;-83
2022/11/30 08:28:04;;;;;;;14.63;9.50;;;4.30;99.90;;;;;;4936363;29;20194;-84
2022/11/30 08:30:30;;;;;;;14.33;10.13;;;4.10;99.90;;;;;;4936310;29;20175;-84
2022/11/30 08:32:56;;;;;;;15.80;10.47;;;4.10;99.90;;;;;;4936143;29;20533;-83
2022/11/30 08:35:22;;;;;;;16.80;10.60;;;4.10;99.90;;;;;;4936433;29;20212;-84
2022/11/30 08:37:48;;;;;;;14.57;9.70;;;4.20;99.90;;;;;;4936492;29;20218;-83
2022/11/30 08:40:13;;;;;;;13.73;9.23;;;4.20;99.90;;;;;;4936412;29;20258;-85
2022/11/30 08:42:40;;;;;;;15.63;10.13;;;4.10;99.90;;;;;;4936101;29;20176;-84
2022/11/30 08:45:07;;;;;;;17.10;10.53;;;4.10;99.90;;;;;;4936367;29;20667;-83
2022/11/30 08:47:33;;;;;;;13.27;9.63;;;4.20;99.90;;;;;;4935939;29;20283;-83
2022/11/30 08:49:59;;;;;;;13.93;10.60;;;4.20;99.90;;;;;;4935901;29;20251;-81
2022/11/30 08:52:26;;;;;;;18.90;10.37;;;4.30;99.90;;;;;;4919025;29;20239;-82
2022/11/30 08:54:52;;;;;;;16.20;10.30;;;4.20;99.90;;;;;;4923312;29;20180;-83
2022/11/30 08:57:21;;;;;;;19.13;11.27;;;4.10;99.90;;;;;;4936545;29;20303;-85
2022/11/30 08:59:47;;;;;;;18.73;11.07;;;4.10;99.90;;;;;;4935551;29;20718;-84
2022/11/30 09:02:16;;;;;;;17.40;10.77;;;4.10;99.90;;;;;;4936103;29;20176;-84
2022/11/30 09:04:42;;;;;;;19.53;11.27;;;4.20;99.90;;;;;;4938173;29;20172;-85
2022/11/30 09:07:08;;;;;;;19.50;11.10;;;4.20;99.90;;;;;;4940442;29;20631;-82
2022/11/30 09:09:35;;;;;;;16.50;11.07;;;4.20;99.90;;;;;;4938985;29;20203;-83
2022/11/30 09:12:01;;;;;;;18.17;11.33;;;4.20;99.90;;;;;;4938229;29;20294;-85
2022/11/30 09:14:27;;;;;;;18.70;11.77;;;4.30;99.90;;;;;;4939032;29;20274;-83
2022/11/30 09:16:54;;;;;;;20.60;11.40;;;4.40;99.90;;;;;;4942383;29;20267;-82
2022/11/30 09:19:20;;;;;;;19.47;11.23;;;4.40;99.90;;;;;;4950072;29;20177;-84
2022/11/30 09:21:46;;;;;;;20.50;11.87;;;4.40;99.90;;;;;;4952055;29;20216;-81
2022/11/30 09:24:12;;;;;;;16.83;11.63;;;4.50;99.90;;;;;;4937240;29;20536;-84
2022/11/30 09:26:38;;;;;;;19.33;12.47;;;4.60;99.90;;;;;;4918518;29;20197;-82
2022/11/30 09:29:04;;;;;;;18.33;10.40;;;4.60;99.90;;;;;;4945244;29;20212;-83
2022/11/30 09:31:30;;;;;;;16.27;10.90;;;4.70;99.90;;;;;;4938727;29;20201;-83
2022/11/30 09:33:56;;;;;;;18.73;11.57;;;4.70;99.90;;;;;;4939264;29;20176;-83
2022/11/30 09:36:26;;;;;;;18.17;11.00;;;4.70;99.90;;;;;;4935823;29;20195;-82
2022/11/30 09:38:52;;;;;;;17.60;11.30;;;4.80;99.90;;;;;;4919070;29;20206;-81
2022/11/30 09:41:33;;;;;;;16.10;10.93;;;4.70;99.90;;;;;;4940111;29;20199;-84
2022/11/30 09:44:20;;;;;;;20.00;10.77;;;4.60;99.90;;;;;;4937433;29;20173;-85
2022/11/30 09:47:11;;;;;;;18.97;10.53;;;4.60;99.90;;;;;;4936925;29;20175;-82
2022/11/30 09:49:43;;;;;;;17.33;10.13;;;4.70;99.90;;;;;;4935813;29;20240;-84
2022/11/30 09:52:24;;;;;;;17.03;9.80;;;4.60;99.90;;;;;;4935832;29;20263;-82
2022/11/30 09:54:50;;;;;;;18.80;10.43;;;4.70;99.90;;;;;;4937372;29;20188;-84
2022/11/30 09:57:26;;;;;;;15.97;10.30;;;4.60;99.90;;;;;;4937593;29;20176;-83
2022/11/30 10:00:05;;;;;;;16.97;10.20;;;4.60;99.90;;;;;;4939551;29;20227;-83
2022/11/30 10:02:36;;;;;;;15.80;10.97;;;4.50;99.90;;;;;;4939566;29;20238;-84
2022/11/30 10:05:11;;;;;;;16.00;10.17;;;4.60;99.90;;;;;;4939063;29;20164;-84
2022/11/30 10:08:20;;;;;;;16.03;9.83;;;4.70;99.90;;;;;;4939073;29;20174;-84
2022/11/30 10:10:52;;;;;;;16.43;9.77;;;4.90;99.90;;;;;;4938814;29;20662;-85
2022/11/30 10:13:39;;;;;;;14.63;9.30;;;4.90;99.90;;;;;;4938757;29;20198;-85
2022/11/30 10:16:13;;;;;;;13.40;9.27;;;4.80;99.90;;;;;;4938793;29;20173;-85
2022/11/30 10:18:45;;;;;;;14.00;9.97;;;4.80;99.90;;;;;;4938622;29;20296;-82
2022/11/30 10:21:14;;;;;;;15.23;9.90;;;4.80;99.90;;;;;;4921704;29;20197;-83
2022/11/30 10:24:17;;;;;;;14.40;9.47;;;4.80;99.90;;;;;;4938804;29;20175;-83
2022/11/30 10:26:54;;;;;;;15.87;9.60;;;4.80;99.90;;;;;;4944356;29;20234;-83
2022/11/30 10:29:29;;;;;;;15.47;9.70;;;4.80;99.90;;;;;;4939375;29;20277;-84
2022/11/30 10:31:58;;;;;;;12.63;8.53;;;4.80;99.90;;;;;;4938477;29;20207;-82
2022/11/30 10:34:34;;;;;;;13.93;9.40;;;4.80;99.90;;;;;;4938420;29;20180;-84
2022/11/30 10:37:03;;;;;;;16.30;10.03;;;4.80;99.90;;;;;;4938530;29;20262;-85
2022/11/30 10:40:21;;;;;;;16.80;9.63;;;4.80;99.90;;;;;;4921149;29;20205;-86
2022/11/30 10:42:55;;;;;;;17.50;10.20;;;4.90;99.90;;;;;;4925399;29;20648;-82
2022/11/30 10:45:23;;;;;;;14.17;9.47;;;4.90;99.90;;;;;;4940604;29;20173;-83
2022/11/30 10:47:54;;;;;;;15.93;9.20;;;5.00;99.90;;;;;;4940446;29;20168;-83
2022/11/30 10:50:25;;;;;;;14.13;9.63;;;5.00;99.90;;;;;;4938372;29;20180;-84
2022/11/30 10:52:54;;;;;;;13.63;9.03;;;5.00;99.90;;;;;;4938804;29;20207;-82
2022/11/30 10:55:29;;;;;;;15.40;9.27;;;5.00;99.90;;;;;;4939048;29;20254;-83
2022/11/30 10:58:04;;;;;;;16.87;9.73;;;5.10;99.90;;;;;;4948787;29;20632;-81
2022/11/30 11:00:29;;;;;;;14.93;9.50;;;5.00;99.90;;;;;;4946937;29;20244;-85
2022/11/30 11:02:55;;;;;;;13.07;9.27;;;5.00;99.90;;;;;;4950758;29;20664;-84
2022/11/30 11:05:29;;;;;;;17.20;9.90;;;5.10;99.90;;;;;;4947845;29;20262;-83
2022/11/30 11:07:57;;;;;;;12.37;9.10;;;5.00;99.90;;;;;;4931777;29;20204;-82
2022/11/30 11:10:41;;;;;;;14.83;9.57;;;5.10;99.90;;;;;;4953936;29;20521;-83
2022/11/30 11:13:34;;;;;;;14.80;8.90;;;5.20;99.90;;;;;;4938903;29;20184;-84
2022/11/30 11:16:01;;;;;;;11.37;8.13;;;5.20;99.90;;;;;;4938130;29;20161;-84
2022/11/30 11:18:29;;;;;;;11.50;8.13;;;5.20;99.90;;;;;;4938185;29;20172;-83
2022/11/30 11:21:16;;;;;;;12.87;9.03;;;5.10;99.90;;;;;;4937740;29;20176;-83
2022/11/30 11:23:43;;;;;;;17.43;8.10;;;5.00;99.90;;;;;;4937792;29;20172;-84
2022/11/30 11:26:17;;;;;;;12.10;8.40;;;5.00;99.90;;;;;;4937845;29;20230;-84
2022/11/30 11:28:45;;;;;;;12.57;7.90;;;5.00;99.90;;;;;;4937839;29;20172;-81
2022/11/30 11:31:31;;;;;;;12.03;8.33;;;5.10;99.90;;;;;;4937558;29;20563;-81
2022/11/30 11:33:57;;;;;;;10.33;7.67;;;5.00;99.90;;;;;;4937411;29;20175;-80
2022/11/30 11:36:32;;;;;;;12.97;8.97;;;5.00;99.90;;;;;;4920200;29;20255;-78
2022/11/30 11:38:59;;;;;;;11.00;8.03;;;5.10;99.90;;;;;;4937394;29;20201;-79
2022/11/30 11:41:36;;;;;;;14.23;8.00;;;5.00;99.90;;;;;;4920502;29;20189;-83
2022/11/30 11:44:20;;;;;;;12.33;8.03;;;5.00;99.90;;;;;;4937760;29;20184;-83
2022/11/30 11:46:58;;;;;;;11.83;7.87;;;5.00;99.90;;;;;;4920123;29;20180;-82
2022/11/30 11:49:30;;;;;;;12.83;7.93;;;5.10;99.90;;;;;;4937211;29;20677;-85
2022/11/30 11:52:08;;;;;;;13.23;8.30;;;5.10;99.90;;;;;;4937135;29;20250;-84
2022/11/30 11:54:52;;;;;;;12.20;7.80;;;5.10;99.90;;;;;;4937819;29;20176;-85
2022/11/30 11:57:41;;;;;;;12.20;8.53;;;5.10;99.90;;;;;;4943795;29;20560;-84
2022/11/30 12:00:18;;;;;;;11.07;7.57;;;5.20;99.90;;;;;;4906437;29;20241;-83
2022/11/30 12:02:50;;;;;;;10.97;7.73;;;5.20;99.90;;;;;;4903946;29;20173;-83
2022/11/30 12:05:31;;;;;;;10.97;7.67;;;5.30;99.90;;;;;;4899090;29;20631;-84
2022/11/30 12:08:24;;;;;;;10.73;7.70;;;5.20;99.90;;;;;;4898917;29;20183;-85
2022/11/30 12:11:01;;;;;;;11.17;7.90;;;5.20;99.90;;;;;;4897526;29;20174;-82
2022/11/30 12:13:47;;;;;;;10.13;7.27;;;5.20;99.90;;;;;;4899339;29;20181;-83
2022/11/30 12:16:30;;;;;;;8.97;6.87;;;5.10;99.90;;;;;;4899319;29;20174;-85
2022/11/30 12:19:14;;;;;;;10.47;7.50;;;5.10;99.90;;;;;;4898671;29;20181;-83
2022/11/30 12:22:04;;;;;;;9.80;7.20;;;5.20;99.90;;;;;;4898511;29;20254;-83
2022/11/30 12:24:45;;;;;;;10.13;7.00;;;5.10;99.90;;;;;;4907292;29;20181;-83
2022/11/30 12:27:16;;;;;;;11.10;7.80;;;5.10;99.90;;;;;;4901544;29;20177;-84
2022/11/30 12:30:12;;;;;;;8.77;6.80;;;5.00;99.90;;;;;;4899147;29;20162;-82
2022/11/30 12:33:05;;;;;;;10.90;7.23;;;5.00;99.90;;;;;;4898795;29;20302;-83
2022/11/30 12:35:55;;;;;;;8.93;6.73;;;5.10;99.90;;;;;;4912102;29;20188;-82
2022/11/30 12:38:57;;;;;;;14.07;6.90;;;5.00;99.90;;;;;;4899741;29;20174;-85
2022/11/30 12:41:41;;;;;;;11.53;7.27;;;5.10;99.90;;;;;;4899722;29;20159;-85
2022/11/30 12:44:27;;;;;;;9.23;7.10;;;5.20;99.90;;;;;;4901249;29;20168;-83
2022/11/30 12:47:20;;;;;;;11.37;6.70;;;5.20;99.90;;;;;;4899164;29;20638;-84
2022/11/30 12:50:16;;;;;;;9.53;6.83;;;5.10;99.90;;;;;;4863475;29;20189;-84
2022/11/30 12:53:00;;;;;;;8.57;6.80;;;5.10;99.90;;;;;;4904599;29;20201;-83
2022/11/30 12:55:42;;;;;;;7.90;6.13;;;5.00;99.90;;;;;;4902273;29;20639;-84
2022/11/30 12:58:21;;;;;;;9.67;6.53;;;4.90;99.90;;;;;;4918497;29;20171;-85
2022/11/30 13:01:13;;;;;;;9.73;6.70;;;5.00;99.90;;;;;;4930535;29;20258;-84